createdAt,value
2023-04-17T00:01:55.739Z,10.62
2023-04-17T00:11:59.066Z,10.53
2023-04-17T00:22:03.604Z,10.60
2023-04-17T00:32:07.986Z,10.43
2023-04-17T00:42:12.755Z,10.53
2023-04-17T00:52:19.227Z,10.59
2023-04-17T01:02:25.754Z,10.56
2023-04-17T01:12:29.590Z,10.39
2023-04-17T01:22:35.419Z,10.50
2023-04-17T01:32:40.210Z,10.52
2023-04-17T01:42:43.624Z,10.45
2023-04-17T01:52:48.533Z,10.44
2023-04-17T02:02:52.071Z,10.49
2023-04-17T02:12:56.577Z,10.53
2023-04-17T02:23:00.331Z,10.50
2023-04-17T02:33:04.979Z,10.50
2023-04-17T02:43:09.282Z,10.47
2023-04-17T02:53:15.808Z,10.47
2023-04-17T03:03:19.214Z,10.41
2023-04-17T03:13:24.300Z,10.47
2023-04-17T03:23:28.952Z,10.40
2023-04-17T03:33:34.013Z,10.44
2023-04-17T03:43:37.455Z,10.38
2023-04-17T03:53:41.978Z,10.36
2023-04-17T04:03:48.405Z,10.39
2023-04-17T04:13:53.613Z,10.39
2023-04-17T04:23:57.289Z,10.39
2023-04-17T04:34:02.251Z,10.35
2023-04-17T04:44:06.505Z,10.38
2023-04-17T04:54:14.413Z,10.35
2023-04-17T05:04:25.151Z,10.39
2023-04-17T05:14:34.730Z,10.37
2023-04-17T05:24:38.530Z,10.36
2023-04-17T05:34:43.528Z,10.38
2023-04-17T05:44:47.291Z,10.39
2023-04-17T05:54:52.765Z,10.37
2023-04-17T06:04:58.424Z,10.29
2023-04-17T06:15:05.675Z,10.08
2023-04-17T06:25:11.819Z,10.25
2023-04-17T06:35:17.407Z,10.26
2023-04-17T06:45:25.356Z,10.20
2023-04-17T06:55:31.124Z,10.26
2023-04-17T07:05:33.813Z,10.27
2023-04-17T07:15:38.196Z,10.24
2023-04-17T07:25:41.365Z,10.39
2023-04-17T07:35:46.824Z,10.11
2023-04-17T07:45:50.098Z,10.23
2023-04-17T07:55:54.954Z,10.35
2023-04-17T08:05:59.249Z,10.63
2023-04-17T08:16:04.408Z,11.01
2023-04-17T08:26:08.158Z,11.13
2023-04-17T08:36:12.431Z,10.86
2023-04-17T08:46:16.859Z,11.24
2023-04-17T08:56:22.385Z,11.22
2023-04-17T09:06:25.616Z,11.44
2023-04-17T09:16:31.769Z,11.39
2023-04-17T09:26:34.584Z,11.76
2023-04-17T09:36:41.727Z,11.94
2023-04-17T09:46:48.028Z,12.59
2023-04-17T09:56:55.983Z,12.49
2023-04-17T10:06:59.565Z,12.39
2023-04-17T10:17:23.896Z,13.45
2023-04-17T10:27:46.525Z,14.20
2023-04-17T10:38:07.541Z,14.62
2023-04-17T10:48:20.933Z,13.84
2023-04-17T10:58:31.662Z,14.32
2023-04-17T11:08:35.442Z,14.02
2023-04-17T11:18:40.111Z,14.01
2023-04-17T11:28:43.080Z,14.54
2023-04-17T11:38:49.265Z,14.03
2023-04-17T11:48:52.478Z,14.93
2023-04-17T11:58:58.568Z,14.65
2023-04-17T12:09:02.381Z,14.89
2023-04-17T12:29:43.239Z,14.34
2023-04-17T12:39:48.867Z,14.42
2023-04-17T12:49:51.572Z,14.67
2023-04-17T12:59:56.369Z,14.33
2023-04-17T13:09:59.393Z,14.33
2023-04-17T13:30:28.433Z,14.45
2023-04-17T13:40:32.973Z,14.55
2023-04-17T13:50:36.244Z,14.67
2023-04-17T14:00:40.736Z,14.64
2023-04-17T14:10:43.973Z,14.75
2023-04-17T14:20:48.711Z,14.73
2023-04-17T14:30:52.191Z,14.74
2023-04-17T14:40:56.785Z,14.64
2023-04-17T14:51:01.703Z,14.57
2023-04-17T15:01:06.289Z,14.46
2023-04-17T15:11:09.911Z,14.43
2023-04-17T15:21:14.395Z,14.20
2023-04-17T15:31:17.574Z,14.20
2023-04-17T15:41:21.939Z,14.23
2023-04-17T15:51:25.137Z,14.24
2023-04-17T16:01:29.712Z,14.53
2023-04-17T16:11:34.117Z,14.62
2023-04-17T16:21:39.112Z,14.74
2023-04-17T16:31:43.566Z,14.58
2023-04-17T16:41:48.203Z,14.38
2023-04-17T16:51:51.293Z,14.35
2023-04-17T17:01:55.681Z,14.26
2023-04-17T17:11:58.591Z,14.19
2023-04-17T17:22:04.570Z,14.25
2023-04-17T17:32:09.214Z,14.22
2023-04-17T17:42:14.343Z,14.08
2023-04-17T17:52:17.942Z,13.91
2023-04-17T18:02:22.382Z,13.80
2023-04-17T18:12:25.707Z,13.68
2023-04-17T18:22:30.306Z,13.54
2023-04-17T18:32:33.400Z,13.48
2023-04-17T18:42:37.985Z,13.37
2023-04-17T18:52:44.039Z,13.28
2023-04-17T19:02:51.645Z,13.20
2023-04-17T19:12:54.645Z,13.00
2023-04-17T19:22:59.571Z,13.24
2023-04-17T19:33:02.757Z,12.95
2023-04-17T19:43:07.296Z,12.85
2023-04-17T19:53:10.825Z,12.68
2023-04-17T20:03:15.241Z,12.52
2023-04-17T20:13:18.911Z,12.50
2023-04-17T20:23:23.537Z,12.17
2023-04-17T20:33:27.004Z,12.22
2023-04-17T20:43:33.017Z,12.34
2023-04-17T20:53:36.074Z,12.03
2023-04-17T21:03:40.546Z,12.23
2023-04-17T21:13:44.058Z,12.14
2023-04-17T21:23:48.468Z,12.08
2023-04-17T21:33:51.719Z,11.92
2023-04-17T21:43:56.118Z,11.85
2023-04-17T21:53:59.060Z,11.89
2023-04-17T22:04:03.352Z,11.84
2023-04-17T22:14:06.400Z,11.75
2023-04-17T22:24:11.542Z,11.56
2023-04-17T22:34:14.899Z,11.58
2023-04-17T22:44:19.722Z,11.52
2023-04-17T22:54:23.322Z,11.36
2023-04-17T23:04:27.691Z,11.28
2023-04-17T23:14:30.514Z,11.04
2023-04-17T23:24:35.290Z,11.02
2023-04-17T23:34:38.625Z,10.70
2023-04-17T23:44:43.261Z,10.59
2023-04-17T23:54:46.178Z,10.39
